createdAt,value
2022-11-01T10:18:29.451Z,30.27
2022-11-01T10:21:01.222Z,26.95
2022-11-01T10:23:43.462Z,30.85
2022-11-01T10:26:17.478Z,26.92
2022-11-01T10:28:56.017Z,24.33
2022-11-01T10:31:28.596Z,28.98
2022-11-01T10:34:03.458Z,27.02
2022-11-01T10:42:14.923Z,28.77
2022-11-01T10:44:51.979Z,23.42
2022-11-01T10:47:23.083Z,26.35
2022-11-01T10:50:05.971Z,22.17
2022-11-01T10:52:47.760Z,37.03
2022-11-01T10:55:22.675Z,34.33
2022-11-01T10:57:58.734Z,29.63
2022-11-01T11:00:28.610Z,35.08
2022-11-01T11:03:02.170Z,23.17
2022-11-01T11:05:34.174Z,23.98
2022-11-01T11:08:07.444Z,24.98
2022-11-01T11:10:37.683Z,26.92
2022-11-01T11:13:09.163Z,20.67
2022-11-01T11:15:44.536Z,28.88
2022-11-01T11:21:00.428Z,25.08
2022-11-01T11:23:33.182Z,25.98
2022-11-01T11:26:04.201Z,26.92
2022-11-01T11:28:35.686Z,28.73
2022-11-01T11:31:15.238Z,27.30
2022-11-01T11:33:51.469Z,30.60
2022-11-01T11:36:31.162Z,33.47
2022-11-01T11:39:02.752Z,35.13
2022-11-01T11:41:35.328Z,32.20
2022-11-01T11:44:05.202Z,33.92
2022-11-01T11:46:34.537Z,43.25
2022-11-01T11:49:07.206Z,78.35
2022-11-01T11:51:39.370Z,45.78
2022-11-01T11:54:26.029Z,47.72
2022-11-01T11:57:11.685Z,36.53
2022-11-01T11:59:42.632Z,31.90
2022-11-01T12:02:20.944Z,36.90
2022-11-01T12:04:56.350Z,31.58
2022-11-01T12:07:30.626Z,33.53
2022-11-01T12:10:03.341Z,35.30
2022-11-01T12:12:34.793Z,30.38
2022-11-01T12:15:04.774Z,35.97
2022-11-01T12:17:37.101Z,32.17
2022-11-01T12:20:20.077Z,34.90
2022-11-01T12:22:56.080Z,27.75
2022-11-01T12:25:26.765Z,26.00
2022-11-01T12:28:04.863Z,21.75
2022-11-01T12:30:37.007Z,22.17
2022-11-01T12:33:21.432Z,24.30
2022-11-01T12:35:54.341Z,18.42
2022-11-01T12:38:41.143Z,19.55
2022-11-01T12:41:35.990Z,23.17
2022-11-01T12:44:21.966Z,20.17
2022-11-01T12:46:57.403Z,21.00
2022-11-01T12:49:32.851Z,21.25
2022-11-01T12:52:09.114Z,16.13
2022-11-01T12:54:45.578Z,19.65
2022-11-01T12:57:17.090Z,18.65
2022-11-01T12:59:48.046Z,19.13
2022-11-01T13:02:44.049Z,17.13
2022-11-01T13:05:19.970Z,20.77
2022-11-01T13:08:01.712Z,17.75
2022-11-01T13:10:35.503Z,14.32
2022-11-01T13:13:17.923Z,13.27
2022-11-01T13:16:00.210Z,17.77
2022-11-01T13:18:40.642Z,17.17
2022-11-01T13:21:18.999Z,19.52
2022-11-01T13:23:54.945Z,15.07
2022-11-01T13:26:29.481Z,17.02
2022-11-01T13:29:17.708Z,17.52
2022-11-01T13:32:02.043Z,22.27
2022-11-01T13:34:40.113Z,21.52
2022-11-01T13:37:16.436Z,22.13
2022-11-01T13:39:59.010Z,20.88
2022-11-01T13:42:36.343Z,52.80
2022-11-01T13:45:29.407Z,26.40
2022-11-01T13:48:08.907Z,17.35
2022-11-01T13:51:10.087Z,21.17
2022-11-01T13:53:46.802Z,19.80
2022-11-01T13:56:20.699Z,18.58
2022-11-01T13:58:52.081Z,18.80
2022-11-01T14:01:31.617Z,19.33
2022-11-01T14:04:25.653Z,24.50
2022-11-01T14:07:14.444Z,27.92
2022-11-01T14:09:48.629Z,22.65
2022-11-01T14:12:40.968Z,26.13
2022-11-01T14:15:22.145Z,31.75
2022-11-01T14:18:03.827Z,37.95
2022-11-01T14:20:47.974Z,29.92
2022-11-01T14:23:54.227Z,24.88
2022-11-01T14:26:39.113Z,22.65
2022-11-01T14:29:13.555Z,30.30
2022-11-01T14:31:47.446Z,40.85
2022-11-01T14:34:36.194Z,84.40
2022-11-01T14:37:16.578Z,51.85
2022-11-01T14:40:18.516Z,30.05
2022-11-01T14:42:49.971Z,34.50
2022-11-01T14:45:29.997Z,36.58
2022-11-01T14:48:07.150Z,35.50
2022-11-01T14:50:48.032Z,35.25
2022-11-01T14:53:24.539Z,27.98
2022-11-01T14:56:08.004Z,48.88
2022-11-01T14:58:37.361Z,36.53
2022-11-01T15:01:09.053Z,31.27
2022-11-01T15:03:39.900Z,34.47
2022-11-01T15:06:23.174Z,32.22
2022-11-01T15:08:52.783Z,137.95
2022-11-01T15:11:22.534Z,32.90
2022-11-01T15:13:53.428Z,41.15
2022-11-01T15:16:26.784Z,47.05
2022-11-01T15:19:02.586Z,64.28
2022-11-01T15:21:34.104Z,27.25
2022-11-01T15:24:04.699Z,37.47
2022-11-01T15:26:35.598Z,31.58
2022-11-01T15:29:07.120Z,31.67
2022-11-01T15:31:50.186Z,33.08
2022-11-01T15:34:26.546Z,31.63
2022-11-01T15:36:56.371Z,31.75
2022-11-01T15:39:29.014Z,34.55
2022-11-01T15:41:58.806Z,42.45
2022-11-01T15:44:29.895Z,32.28
2022-11-01T15:47:01.028Z,48.78
2022-11-01T15:49:35.810Z,30.58
2022-11-01T15:52:27.418Z,37.13
2022-11-01T15:55:03.133Z,137.50
2022-11-01T15:57:37.562Z,151.70
2022-11-01T16:00:09.728Z,43.67
2022-11-01T16:02:46.571Z,31.33
2022-11-01T16:05:23.323Z,32.90
2022-11-01T16:07:53.504Z,45.10
2022-11-01T16:10:25.369Z,42.08
2022-11-01T16:12:57.254Z,33.22
2022-11-01T16:15:29.769Z,28.27
2022-11-01T16:18:00.367Z,32.85
2022-11-01T16:20:35.177Z,32.28
2022-11-01T16:23:06.340Z,31.23
2022-11-01T16:25:38.257Z,31.10
2022-11-01T16:28:23.865Z,29.98
2022-11-01T16:30:54.887Z,35.88
2022-11-01T16:33:29.193Z,32.50
2022-11-01T16:36:01.356Z,31.67
2022-11-01T16:38:44.385Z,34.15
2022-11-01T16:41:22.166Z,37.25
2022-11-01T16:43:55.393Z,40.63
2022-11-01T16:46:26.154Z,36.22
2022-11-01T16:48:57.741Z,41.33
2022-11-01T16:51:30.487Z,35.97
2022-11-01T16:54:01.509Z,31.33
2022-11-01T16:56:37.025Z,31.55
2022-11-01T16:59:17.458Z,29.02
2022-11-01T17:01:47.843Z,36.67
2022-11-01T17:04:18.650Z,30.25
2022-11-01T17:06:49.600Z,36.10
2022-11-01T17:09:20.878Z,37.90
2022-11-01T17:11:53.526Z,36.67
2022-11-01T17:14:23.476Z,38.67
2022-11-01T17:16:56.287Z,31.45
2022-11-01T17:19:29.829Z,46.67
2022-11-01T17:22:04.026Z,35.55
2022-11-01T17:24:34.233Z,36.90
2022-11-01T17:27:07.438Z,41.38
2022-11-01T17:29:37.135Z,37.08
2022-11-01T17:32:09.744Z,37.28
2022-11-01T17:34:39.906Z,39.20
2022-11-01T17:37:17.163Z,37.15
2022-11-01T17:39:46.737Z,41.90
2022-11-01T17:42:16.022Z,42.00
2022-11-01T17:45:06.426Z,41.33
2022-11-01T17:47:38.021Z,44.53
2022-11-01T17:50:11.952Z,40.92
2022-11-01T17:52:44.649Z,33.23
2022-11-01T17:55:14.613Z,39.92
2022-11-01T17:57:46.163Z,39.97
2022-11-01T18:00:17.042Z,40.58
2022-11-01T18:02:49.158Z,39.28
2022-11-01T18:05:18.773Z,39.10
2022-11-01T18:07:51.031Z,34.15
2022-11-01T18:10:22.884Z,37.92
2022-11-01T18:13:14.322Z,35.05
2022-11-01T18:15:50.594Z,33.47
2022-11-01T18:18:40.859Z,33.38
2022-11-01T18:21:18.761Z,36.95
2022-11-01T18:23:51.335Z,39.42
2022-11-01T18:26:23.603Z,37.88
2022-11-01T18:28:59.860Z,36.58
2022-11-01T18:31:35.405Z,38.90
2022-11-01T18:34:14.483Z,30.30
2022-11-01T18:36:53.363Z,40.75
2022-11-01T18:39:36.363Z,35.58
2022-11-01T18:42:10.265Z,38.35
2022-11-01T18:44:40.105Z,37.00
2022-11-01T18:47:16.633Z,35.88
2022-11-01T18:49:46.757Z,36.03
2022-11-01T18:52:19.187Z,38.33
2022-11-01T18:54:56.739Z,38.75
2022-11-01T18:57:29.053Z,36.28
2022-11-01T18:59:58.986Z,37.22
2022-11-01T19:02:30.771Z,34.90
2022-11-01T19:05:15.313Z,33.20
2022-11-01T19:08:09.523Z,38.10
2022-11-01T19:10:37.618Z,38.45
2022-11-01T19:13:13.664Z,43.40
2022-11-01T19:15:44.086Z,46.30
2022-11-01T19:18:20.528Z,60.97
2022-11-01T19:20:53.101Z,46.15
2022-11-01T19:23:25.874Z,41.95
2022-11-01T19:25:56.647Z,45.90
2022-11-01T19:28:29.608Z,40.42
2022-11-01T19:31:05.053Z,46.67
2022-11-01T19:33:38.526Z,55.28
2022-11-01T19:36:15.883Z,49.53
2022-11-01T19:38:46.391Z,63.13
2022-11-01T19:41:19.892Z,75.43
2022-11-01T19:43:52.405Z,65.50
2022-11-01T19:46:24.442Z,76.47
2022-11-01T19:48:55.951Z,61.72
2022-11-01T19:51:27.179Z,68.55
2022-11-01T19:53:57.091Z,55.38
2022-11-01T19:56:30.131Z,53.13
2022-11-01T19:59:03.695Z,52.90
2022-11-01T20:01:45.921Z,55.40
2022-11-01T20:04:29.194Z,49.45
2022-11-01T20:07:01.449Z,76.68
2022-11-01T20:09:35.673Z,70.50
2022-11-01T20:12:06.808Z,70.57
2022-11-01T20:14:36.515Z,64.68
2022-11-01T20:17:06.805Z,64.45
2022-11-01T20:19:37.062Z,61.85
2022-11-01T20:22:06.998Z,65.97
2022-11-01T20:24:36.903Z,66.75
2022-11-01T20:27:08.756Z,69.20
2022-11-01T20:29:38.457Z,94.70
2022-11-01T20:32:07.948Z,152.40
2022-11-01T20:34:38.360Z,103.63
2022-11-01T20:37:27.529Z,80.63
2022-11-01T20:39:57.756Z,71.57
2022-11-01T20:42:28.706Z,74.72
2022-11-01T20:44:58.305Z,64.65
2022-11-01T20:47:27.685Z,73.72
2022-11-01T20:49:57.372Z,71.07
2022-11-01T20:52:39.160Z,75.47
2022-11-01T20:55:11.485Z,81.72
2022-11-01T20:57:42.453Z,73.40
2022-11-01T21:00:14.487Z,81.63
2022-11-01T21:02:44.475Z,80.40
2022-11-01T21:05:23.249Z,84.03
2022-11-01T21:07:59.122Z,90.13
2022-11-01T21:10:33.326Z,87.43
2022-11-01T21:13:08.175Z,79.25
2022-11-01T21:15:39.498Z,84.65
2022-11-01T21:18:38.103Z,78.75
2022-11-01T21:21:32.815Z,94.30
2022-11-01T21:24:33.615Z,80.72
2022-11-01T21:30:19.455Z,93.18
2022-11-01T21:32:49.308Z,101.70
2022-11-01T21:35:40.936Z,88.35
2022-11-01T21:38:36.886Z,80.75
2022-11-01T21:41:31.686Z,73.70
2022-11-01T21:44:15.397Z,85.30
2022-11-01T21:46:49.122Z,86.88
2022-11-01T21:49:27.123Z,84.38
2022-11-01T21:51:59.021Z,83.20
2022-11-01T21:54:29.829Z,110.00
2022-11-01T21:56:59.622Z,91.22
2022-11-01T21:59:29.762Z,93.50
2022-11-01T22:02:01.521Z,83.35
2022-11-01T22:04:32.524Z,76.63
2022-11-01T22:07:03.038Z,67.25
2022-11-01T22:09:33.430Z,63.03
2022-11-01T22:12:03.115Z,54.83
2022-11-01T22:14:32.774Z,46.53
2022-11-01T22:17:03.491Z,50.97
2022-11-01T22:19:33.031Z,49.13
2022-11-01T22:22:02.398Z,42.95
2022-11-01T22:24:31.901Z,44.03
2022-11-01T22:27:02.189Z,41.17
2022-11-01T22:29:31.630Z,42.38
2022-11-01T22:32:02.462Z,37.42
2022-11-01T22:34:31.981Z,31.92
2022-11-01T22:37:02.155Z,36.35
2022-11-01T22:39:32.170Z,37.35
2022-11-01T22:42:02.792Z,30.73
2022-11-01T22:44:33.618Z,27.95
2022-11-01T22:47:06.249Z,27.95
2022-11-01T22:49:38.510Z,25.08
2022-11-01T22:52:20.572Z,21.20
2022-11-01T22:54:51.921Z,28.35
2022-11-01T22:57:24.121Z,14.85
2022-11-01T22:59:56.433Z,15.80
2022-11-01T23:02:32.005Z,17.88
2022-11-01T23:05:22.812Z,16.48
2022-11-01T23:07:53.765Z,14.30
2022-11-01T23:10:26.933Z,27.15
2022-11-01T23:13:20.020Z,19.08
2022-11-01T23:15:49.587Z,14.43
2022-11-01T23:18:23.459Z,13.50
2022-11-01T23:20:57.772Z,13.50
2022-11-01T23:23:27.355Z,14.70
2022-11-01T23:26:00.397Z,14.43
2022-11-01T23:28:30.300Z,13.95
2022-11-01T23:31:00.578Z,12.40
2022-11-01T23:33:40.790Z,11.48
2022-11-01T23:36:19.609Z,14.95
2022-11-01T23:38:52.463Z,18.85
2022-11-01T23:41:24.088Z,15.68
2022-11-01T23:43:56.048Z,12.32
2022-11-01T23:46:26.621Z,11.23
2022-11-01T23:49:02.145Z,11.20
2022-11-01T23:51:32.529Z,15.10
2022-11-01T23:54:02.181Z,14.23
2022-11-01T23:56:32.814Z,10.20
2022-11-01T23:59:05.269Z,11.45
